Time;durP1;ratioP1;P1;durP2;ratioP2;P2;SDS_P1;SDS_P2;PMS_P1;PMS_P2;Temp;Humidity;BMP_temperature;BMP_pressure;BME280_temperature;BME280_humidity;BME280_pressure;Samples;Min_cycle;Max_cycle;Signal;HPM_P1;HPM_P2
2019/04/24 00:00:55;;;;;;;1.5;1.25;;;;;;;13.16;49.63965;93729.05;;;;
2019/04/24 00:01:57;;;;;;;1.5;1.25;;;;;;;13.16;49.63965;93729.05;;;;
2019/04/24 00:02:59;;;;;;;1.5;1.25;;;;;;;13.16;49.63965;93729.05;;;;
2019/04/24 00:04:04;;;;;;;1.5;1.25;;;;;;;13.16;49.63965;93729.05;;;;
2019/04/24 00:05:20;;;;;;;1.5;1.25;;;;;;;13.16;49.63965;93729.05;;;;
2019/04/24 00:06:25;;;;;;;1.5;1.25;;;;;;;13.16;49.63965;93729.05;;;;
2019/04/24 00:07:26;;;;;;;1.5;1.25;;;;;;;13.16;49.63965;93729.05;;;;
2019/04/24 00:08:28;;;;;;;1.5;1.25;;;;;;;13.16;49.63965;93729.05;;;;
2019/04/24 00:09:31;;;;;;;2.35;1.2;;;;;;;12.95;49.75684;93726.7;;;;
2019/04/24 00:10:43;;;;;;;2.35;1.2;;;;;;;12.95;49.75684;93726.7;;;;
2019/04/24 00:11:50;;;;;;;2.35;1.2;;;;;;;12.95;49.75684;93726.7;;;;
2019/04/24 00:12:51;;;;;;;2.35;1.2;;;;;;;12.95;49.75684;93726.7;;;;
2019/04/24 00:14:06;;;;;;;2.35;1.2;;;;;;;12.95;49.75684;93726.7;;;;
2019/04/24 00:15:15;;;;;;;2.35;1.2;;;;;;;12.95;49.75684;93726.7;;;;
2019/04/24 00:16:20;;;;;;;2.35;1.2;;;;;;;12.95;49.75684;93726.7;;;;
2019/04/24 00:17:27;;;;;;;2.35;1.2;;;;;;;12.95;49.75684;93726.7;;;;
2019/04/24 00:18:31;;;;;;;2.35;1.2;;;;;;;12.95;49.75684;93726.7;;;;
2019/04/24 00:19:32;;;;;;;2.35;1.2;;;;;;;12.95;49.75684;93726.7;;;;
2019/04/24 00:20:33;;;;;;;2.15;1.1;;;;;;;12.78;49.83691;93738.4;;;;
2019/04/24 00:21:34;;;;;;;2.15;1.1;;;;;;;12.78;49.83691;93738.4;;;;
2019/04/24 00:22:35;;;;;;;2.15;1.1;;;;;;;12.78;49.83691;93738.4;;;;
2019/04/24 00:23:36;;;;;;;2.15;1.1;;;;;;;12.78;49.83691;93738.4;;;;
2019/04/24 00:24:37;;;;;;;2.15;1.1;;;;;;;12.78;49.83691;93738.4;;;;
2019/04/24 00:25:38;;;;;;;2.15;1.1;;;;;;;12.78;49.83691;93738.4;;;;
2019/04/24 00:26:40;;;;;;;2.15;1.1;;;;;;;12.78;49.83691;93738.4;;;;
2019/04/24 00:27:41;;;;;;;2.15;1.1;;;;;;;12.78;49.83691;93738.4;;;;
2019/04/24 00:28:42;;;;;;;2.15;1.1;;;;;;;12.78;49.83691;93738.4;;;;
2019/04/24 00:29:43;;;;;;;2.15;1.1;;;;;;;12.78;49.83691;93738.4;;;;
2019/04/24 00:30:44;;;;;;;1.65;1.2;;;;;;;12.63;49.80859;93747.07;;;;
2019/04/24 00:31:45;;;;;;;1.65;1.2;;;;;;;12.63;49.80859;93747.07;;;;
2019/04/24 00:32:46;;;;;;;1.65;1.2;;;;;;;12.63;49.80859;93747.07;;;;
2019/04/24 00:33:48;;;;;;;1.65;1.2;;;;;;;12.63;49.80859;93747.07;;;;
2019/04/24 00:34:49;;;;;;;1.65;1.2;;;;;;;12.63;49.80859;93747.07;;;;
2019/04/24 00:35:53;;;;;;;1.65;1.2;;;;;;;12.63;49.80859;93747.07;;;;
2019/04/24 00:36:54;;;;;;;1.65;1.2;;;;;;;12.63;49.80859;93747.07;;;;
2019/04/24 00:37:55;;;;;;;1.65;1.2;;;;;;;12.63;49.80859;93747.07;;;;
2019/04/24 00:38:56;;;;;;;1.65;1.2;;;;;;;12.63;49.80859;93747.07;;;;
2019/04/24 00:39:57;;;;;;;1.65;1.2;;;;;;;12.63;49.80859;93747.07;;;;
2019/04/24 00:40:58;;;;;;;1.65;1.2;;;;;;;12.63;49.80859;93747.07;;;;
2019/04/24 00:41:59;;;;;;;1.35;1.2;;;;;;;12.65;49.8418;93739.06;;;;
2019/04/24 00:43:01;;;;;;;1.35;1.2;;;;;;;12.65;49.8418;93739.06;;;;
2019/04/24 00:44:02;;;;;;;1.35;1.2;;;;;;;12.65;49.8418;93739.06;;;;
2019/04/24 00:45:03;;;;;;;1.35;1.2;;;;;;;12.65;49.8418;93739.06;;;;
2019/04/24 00:46:05;;;;;;;1.35;1.2;;;;;;;12.65;49.8418;93739.06;;;;
2019/04/24 00:47:06;;;;;;;1.35;1.2;;;;;;;12.65;49.8418;93739.06;;;;
2019/04/24 00:48:07;;;;;;;1.35;1.2;;;;;;;12.65;49.8418;93739.06;;;;
2019/04/24 00:49:08;;;;;;;1.35;1.2;;;;;;;12.65;49.8418;93739.06;;;;
2019/04/24 00:50:09;;;;;;;1.35;1.2;;;;;;;12.65;49.8418;93739.06;;;;
2019/04/24 00:51:10;;;;;;;1.35;1.2;;;;;;;12.65;49.8418;93739.06;;;;
2019/04/24 00:52:11;;;;;;;1.2;1.1;;;;;;;12.59;49.75;93735.19;;;;
2019/04/24 00:53:12;;;;;;;1.2;1.1;;;;;;;12.59;49.75;93735.19;;;;
2019/04/24 00:54:13;;;;;;;1.2;1.1;;;;;;;12.59;49.75;93735.19;;;;
2019/04/24 00:55:15;;;;;;;1.2;1.1;;;;;;;12.59;49.75;93735.19;;;;
2019/04/24 00:56:16;;;;;;;1.2;1.1;;;;;;;12.59;49.75;93735.19;;;;
2019/04/24 00:57:17;;;;;;;1.2;1.1;;;;;;;12.59;49.75;93735.19;;;;
2019/04/24 00:58:18;;;;;;;1.2;1.1;;;;;;;12.59;49.75;93735.19;;;;
2019/04/24 00:59:19;;;;;;;1.2;1.1;;;;;;;12.59;49.75;93735.19;;;;
2019/04/24 01:00:30;;;;;;;1.2;1.1;;;;;;;12.59;49.75;93735.19;;;;
2019/04/24 01:06:46;;;;;;;1.3;1.1;;;;;;;12.62;49.86035;93748.72;;;;
2019/04/24 01:07:51;;;;;;;1.3;1.1;;;;;;;12.62;49.86035;93748.72;;;;
2019/04/24 01:08:53;;;;;;;1.3;1.1;;;;;;;12.62;49.86035;93748.72;;;;
2019/04/24 01:10:01;;;;;;;1.3;1.1;;;;;;;12.62;49.86035;93748.72;;;;
2019/04/24 01:11:04;;;;;;;1.3;1.1;;;;;;;12.62;49.86035;93748.72;;;;
2019/04/24 01:12:06;;;;;;;1.3;1.1;;;;;;;12.62;49.86035;93748.72;;;;
2019/04/24 01:13:11;;;;;;;0.9;0.9;;;;;;;12.7;49.81543;93743.24;;;;
2019/04/24 01:14:12;;;;;;;0.9;0.9;;;;;;;12.7;49.81543;93743.24;;;;
2019/04/24 01:15:13;;;;;;;0.9;0.9;;;;;;;12.7;49.81543;93743.24;;;;
2019/04/24 01:16:14;;;;;;;0.9;0.9;;;;;;;12.7;49.81543;93743.24;;;;
2019/04/24 01:17:16;;;;;;;0.9;0.9;;;;;;;12.7;49.81543;93743.24;;;;
2019/04/24 01:18:17;;;;;;;0.9;0.9;;;;;;;12.7;49.81543;93743.24;;;;
2019/04/24 01:19:18;;;;;;;0.9;0.9;;;;;;;12.7;49.81543;93743.24;;;;
2019/04/24 01:20:19;;;;;;;0.9;0.9;;;;;;;12.7;49.81543;93743.24;;;;
2019/04/24 01:21:20;;;;;;;0.9;0.9;;;;;;;12.7;49.81543;93743.24;;;;
2019/04/24 01:22:21;;;;;;;0.9;0.9;;;;;;;12.7;49.81543;93743.24;;;;
2019/04/24 01:23:22;;;;;;;0.9;0.9;;;;;;;12.7;49.81543;93743.24;;;;
2019/04/24 01:24:24;;;;;;;0.9;0.9;;;;;;;12.77;49.58496;93737.74;;;;
2019/04/24 01:25:25;;;;;;;0.9;0.9;;;;;;;12.77;49.58496;93737.74;;;;
2019/04/24 01:26:26;;;;;;;0.9;0.9;;;;;;;12.77;49.58496;93737.74;;;;
2019/04/24 01:27:27;;;;;;;0.9;0.9;;;;;;;12.77;49.58496;93737.74;;;;
2019/04/24 01:28:28;;;;;;;0.9;0.9;;;;;;;12.77;49.58496;93737.74;;;;
2019/04/24 01:29:35;;;;;;;0.9;0.9;;;;;;;12.77;49.58496;93737.74;;;;
2019/04/24 01:30:51;;;;;;;0.9;0.9;;;;;;;12.77;49.58496;93737.74;;;;
2019/04/24 01:31:53;;;;;;;0.9;0.9;;;;;;;12.77;49.58496;93737.74;;;;
2019/04/24 01:32:55;;;;;;;0.9;0.9;;;;;;;12.77;49.58496;93737.74;;;;
2019/04/24 01:34:02;;;;;;;0.9;0.9;;;;;;;12.77;49.58496;93737.74;;;;
2019/04/24 01:35:12;;;;;;;1.2;1.1;;;;;;;12.66;49.82129;93738.12;;;;
2019/04/24 01:36:19;;;;;;;1.2;1.1;;;;;;;12.66;49.82129;93738.12;;;;
2019/04/24 01:37:25;;;;;;;1.2;1.1;;;;;;;12.66;49.82129;93738.12;;;;
2019/04/24 01:38:56;;;;;;;1.2;1.1;;;;;;;12.66;49.82129;93738.12;;;;
2019/04/24 01:40:00;;;;;;;1.2;1.1;;;;;;;12.66;49.82129;93738.12;;;;
2019/04/24 01:41:01;;;;;;;1.2;1.1;;;;;;;12.66;49.82129;93738.12;;;;
2019/04/24 01:42:03;;;;;;;1.2;1.1;;;;;;;12.66;49.82129;93738.12;;;;
2019/04/24 01:43:04;;;;;;;1.2;1.1;;;;;;;12.66;49.82129;93738.12;;;;
2019/04/24 01:44:05;;;;;;;1.2;1.1;;;;;;;12.66;49.82129;93738.12;;;;
2019/04/24 01:45:06;;;;;;;2.3;1.1;;;;;;;12.5;50.14941;93739.76;;;;
2019/04/24 01:46:08;;;;;;;2.3;1.1;;;;;;;12.5;50.14941;93739.76;;;;
2019/04/24 01:47:09;;;;;;;2.3;1.1;;;;;;;12.5;50.14941;93739.76;;;;
2019/04/24 01:48:10;;;;;;;2.3;1.1;;;;;;;12.5;50.14941;93739.76;;;;
2019/04/24 01:49:11;;;;;;;2.3;1.1;;;;;;;12.5;50.14941;93739.76;;;;
2019/04/24 01:50:12;;;;;;;2.3;1.1;;;;;;;12.5;50.14941;93739.76;;;;
2019/04/24 01:51:13;;;;;;;2.3;1.1;;;;;;;12.5;50.14941;93739.76;;;;
2019/04/24 01:52:14;;;;;;;2.3;1.1;;;;;;;12.5;50.14941;93739.76;;;;
2019/04/24 01:53:16;;;;;;;2.3;1.1;;;;;;;12.5;50.14941;93739.76;;;;
2019/04/24 01:54:17;;;;;;;2.3;1.1;;;;;;;12.5;50.14941;93739.76;;;;
2019/04/24 01:55:18;;;;;;;2.3;1.1;;;;;;;12.5;50.14941;93739.76;;;;
2019/04/24 01:56:19;;;;;;;1.5;1.15;;;;;;;12.24;50.33691;93760.83;;;;
2019/04/24 01:57:20;;;;;;;1.5;1.15;;;;;;;12.24;50.33691;93760.83;;;;
2019/04/24 01:58:21;;;;;;;1.5;1.15;;;;;;;12.24;50.33691;93760.83;;;;
2019/04/24 01:59:22;;;;;;;1.5;1.15;;;;;;;12.24;50.33691;93760.83;;;;
2019/04/24 02:00:35;;;;;;;1.5;1.15;;;;;;;12.24;50.33691;93760.83;;;;
2019/04/24 02:01:36;;;;;;;1.5;1.15;;;;;;;12.24;50.33691;93760.83;;;;
2019/04/24 02:02:37;;;;;;;1.5;1.15;;;;;;;12.24;50.33691;93760.83;;;;
2019/04/24 02:03:38;;;;;;;1.5;1.15;;;;;;;12.24;50.33691;93760.83;;;;
2019/04/24 02:04:40;;;;;;;1.5;1.15;;;;;;;12.24;50.33691;93760.83;;;;
2019/04/24 02:05:41;;;;;;;1.5;1.15;;;;;;;12.24;50.33691;93760.83;;;;
2019/04/24 02:06:45;;;;;;;1.15;1.1;;;;;;;11.96;50.50977;93765.66;;;;
2019/04/24 02:07:54;;;;;;;1.15;1.1;;;;;;;11.96;50.50977;93765.66;;;;
2019/04/24 02:08:57;;;;;;;1.15;1.1;;;;;;;11.96;50.50977;93765.66;;;;
2019/04/24 02:10:06;;;;;;;1.15;1.1;;;;;;;11.96;50.50977;93765.66;;;;
2019/04/24 02:11:12;;;;;;;1.15;1.1;;;;;;;11.96;50.50977;93765.66;;;;
2019/04/24 02:12:17;;;;;;;1.15;1.1;;;;;;;11.96;50.50977;93765.66;;;;
2019/04/24 02:13:18;;;;;;;1.15;1.1;;;;;;;11.96;50.50977;93765.66;;;;
2019/04/24 02:14:19;;;;;;;1.15;1.1;;;;;;;11.96;50.50977;93765.66;;;;
2019/04/24 02:15:20;;;;;;;1.15;1.1;;;;;;;11.96;50.50977;93765.66;;;;
2019/04/24 02:16:21;;;;;;;1.15;1.1;;;;;;;11.96;50.50977;93765.66;;;;
2019/04/24 02:17:22;;;;;;;2.3;1.3;;;;;;;11.69;51.09473;93761.24;;;;
2019/04/24 02:18:23;;;;;;;2.3;1.3;;;;;;;11.69;51.09473;93761.24;;;;
2019/04/24 02:19:24;;;;;;;2.3;1.3;;;;;;;11.69;51.09473;93761.24;;;;
2019/04/24 02:20:26;;;;;;;2.3;1.3;;;;;;;11.69;51.09473;93761.24;;;;
2019/04/24 02:21:27;;;;;;;2.3;1.3;;;;;;;11.69;51.09473;93761.24;;;;
2019/04/24 02:22:28;;;;;;;2.3;1.3;;;;;;;11.69;51.09473;93761.24;;;;
2019/04/24 02:23:29;;;;;;;2.3;1.3;;;;;;;11.69;51.09473;93761.24;;;;
2019/04/24 02:24:30;;;;;;;2.3;1.3;;;;;;;11.69;51.09473;93761.24;;;;
2019/04/24 02:25:31;;;;;;;2.3;1.3;;;;;;;11.69;51.09473;93761.24;;;;
2019/04/24 02:26:32;;;;;;;2.3;1.3;;;;;;;11.69;51.09473;93761.24;;;;
2019/04/24 02:27:33;;;;;;;2.3;1.3;;;;;;;11.69;51.09473;93761.24;;;;
2019/04/24 02:28:34;;;;;;;2.65;1.1;;;;;;;11.69;51.24512;93762.17;;;;
2019/04/24 02:29:35;;;;;;;2.65;1.1;;;;;;;11.69;51.24512;93762.17;;;;
2019/04/24 02:30:37;;;;;;;2.65;1.1;;;;;;;11.69;51.24512;93762.17;;;;
2019/04/24 02:31:43;;;;;;;2.65;1.1;;;;;;;11.69;51.24512;93762.17;;;;
2019/04/24 02:32:49;;;;;;;2.65;1.1;;;;;;;11.69;51.24512;93762.17;;;;
2019/04/24 02:33:53;;;;;;;2.65;1.1;;;;;;;11.69;51.24512;93762.17;;;;
2019/04/24 02:34:56;;;;;;;2.65;1.1;;;;;;;11.69;51.24512;93762.17;;;;
2019/04/24 02:36:05;;;;;;;2.65;1.1;;;;;;;11.69;51.24512;93762.17;;;;
2019/04/24 02:37:09;;;;;;;2.65;1.1;;;;;;;11.69;51.24512;93762.17;;;;
2019/04/24 02:39:23;;;;;;;2.65;1.1;;;;;;;11.69;51.24512;93762.17;;;;
2019/04/24 02:40:32;;;;;;;1.95;1;;;;;;;11.63;51.27051;93765.01;;;;
2019/04/24 02:41:38;;;;;;;1.95;1;;;;;;;11.63;51.27051;93765.01;;;;
2019/04/24 02:42:42;;;;;;;1.95;1;;;;;;;11.63;51.27051;93765.01;;;;
2019/04/24 02:43:43;;;;;;;1.95;1;;;;;;;11.63;51.27051;93765.01;;;;
2019/04/24 02:44:44;;;;;;;1.95;1;;;;;;;11.63;51.27051;93765.01;;;;
2019/04/24 02:45:45;;;;;;;1.95;1;;;;;;;11.63;51.27051;93765.01;;;;
2019/04/24 02:46:46;;;;;;;1.95;1;;;;;;;11.63;51.27051;93765.01;;;;
2019/04/24 02:47:52;;;;;;;1.95;1;;;;;;;11.63;51.27051;93765.01;;;;
2019/04/24 02:48:54;;;;;;;1.95;1;;;;;;;11.63;51.27051;93765.01;;;;
2019/04/24 02:49:55;;;;;;;1.95;1;;;;;;;11.63;51.27051;93765.01;;;;
2019/04/24 02:50:56;;;;;;;1.95;1;;;;;;;11.63;51.27051;93765.01;;;;
2019/04/24 02:51:57;;;;;;;1.95;1;;;;;;;11.63;51.27051;93765.01;;;;
2019/04/24 02:52:58;;;;;;;1.95;1;;;;;;;11.63;51.27051;93765.01;;;;
2019/04/24 02:53:59;;;;;;;1.95;1;;;;;;;11.63;51.27051;93765.01;;;;
2019/04/24 02:55:00;;;;;;;1.95;1;;;;;;;11.63;51.27051;93765.01;;;;
2019/04/24 02:56:02;;;;;;;1.95;1;;;;;;;11.63;51.27051;93765.01;;;;
2019/04/24 02:57:03;;;;;;;1.95;1;;;;;;;11.63;51.27051;93765.01;;;;
2019/04/24 02:58:05;;;;;;;1.95;1;;;;;;;11.63;51.27051;93765.01;;;;
2019/04/24 02:59:06;;;;;;;1.95;1;;;;;;;11.63;51.27051;93765.01;;;;
2019/04/24 03:00:07;;;;;;;1.95;1;;;;;;;11.63;51.27051;93765.01;;;;
2019/04/24 03:01:08;;;;;;;1.95;1;;;;;;;11.63;51.27051;93765.01;;;;
2019/04/24 03:02:14;;;;;;;1.95;1;;;;;;;11.63;51.27051;93765.01;;;;
2019/04/24 03:03:15;;;;;;;1.95;1;;;;;;;11.63;51.27051;93765.01;;;;
2019/04/24 03:04:16;;;;;;;1.95;1;;;;;;;11.63;51.27051;93765.01;;;;
2019/04/24 03:05:17;;;;;;;1.95;1;;;;;;;11.63;51.27051;93765.01;;;;
2019/04/24 03:06:33;;;;;;;1.95;1;;;;;;;11.63;51.27051;93765.01;;;;
2019/04/24 03:07:34;;;;;;;1.95;1;;;;;;;11.63;51.27051;93765.01;;;;
2019/04/24 03:08:35;;;;;;;1.95;1;;;;;;;11.63;51.27051;93765.01;;;;
2019/04/24 03:09:36;;;;;;;1.95;1;;;;;;;11.63;51.27051;93765.01;;;;
2019/04/24 03:10:37;;;;;;;1.3;1;;;;;;;11.34;51.77637;93778.94;;;;
2019/04/24 03:11:44;;;;;;;1.3;1;;;;;;;11.34;51.77637;93778.94;;;;
2019/04/24 03:12:51;;;;;;;1.3;1;;;;;;;11.34;51.77637;93778.94;;;;
2019/04/24 03:14:04;;;;;;;1.3;1;;;;;;;11.34;51.77637;93778.94;;;;
2019/04/24 03:15:23;;;;;;;1.3;1;;;;;;;11.34;51.77637;93778.94;;;;
2019/04/24 03:16:27;;;;;;;1.3;1;;;;;;;11.34;51.77637;93778.94;;;;
2019/04/24 03:17:28;;;;;;;1.3;1;;;;;;;11.34;51.77637;93778.94;;;;
2019/04/24 03:18:30;;;;;;;1.3;1;;;;;;;11.34;51.77637;93778.94;;;;
2019/04/24 03:19:31;;;;;;;1.3;1;;;;;;;11.34;51.77637;93778.94;;;;
2019/04/24 03:20:32;;;;;;;1.3;1;;;;;;;11.34;51.77637;93778.94;;;;
2019/04/24 03:21:33;;;;;;;2.6;1.15;;;;;;;10.99;52.20996;93786.08;;;;
2019/04/24 03:22:34;;;;;;;2.6;1.15;;;;;;;10.99;52.20996;93786.08;;;;
2019/04/24 03:23:35;;;;;;;2.6;1.15;;;;;;;10.99;52.20996;93786.08;;;;
2019/04/24 03:24:36;;;;;;;2.6;1.15;;;;;;;10.99;52.20996;93786.08;;;;
2019/04/24 03:25:41;;;;;;;2.6;1.15;;;;;;;10.99;52.20996;93786.08;;;;
2019/04/24 03:26:48;;;;;;;2.6;1.15;;;;;;;10.99;52.20996;93786.08;;;;
2019/04/24 03:27:49;;;;;;;2.6;1.15;;;;;;;10.99;52.20996;93786.08;;;;
2019/04/24 03:28:50;;;;;;;2.6;1.15;;;;;;;10.99;52.20996;93786.08;;;;
2019/04/24 03:29:51;;;;;;;2.6;1.15;;;;;;;10.99;52.20996;93786.08;;;;
2019/04/24 03:30:52;;;;;;;2.6;1.15;;;;;;;10.99;52.20996;93786.08;;;;
2019/04/24 03:31:53;;;;;;;1.7;1.1;;;;;;;10.72;52.6084;93790.6;;;;
2019/04/24 03:32:54;;;;;;;1.7;1.1;;;;;;;10.72;52.6084;93790.6;;;;
2019/04/24 03:33:55;;;;;;;1.7;1.1;;;;;;;10.72;52.6084;93790.6;;;;
2019/04/24 03:34:56;;;;;;;1.7;1.1;;;;;;;10.72;52.6084;93790.6;;;;
2019/04/24 03:36:02;;;;;;;1.7;1.1;;;;;;;10.72;52.6084;93790.6;;;;
2019/04/24 03:37:16;;;;;;;1.7;1.1;;;;;;;10.72;52.6084;93790.6;;;;
2019/04/24 03:38:17;;;;;;;1.7;1.1;;;;;;;10.72;52.6084;93790.6;;;;
2019/04/24 03:39:18;;;;;;;1.7;1.1;;;;;;;10.72;52.6084;93790.6;;;;
2019/04/24 03:40:19;;;;;;;1.7;1.1;;;;;;;10.72;52.6084;93790.6;;;;
2019/04/24 03:41:20;;;;;;;1.7;1.1;;;;;;;10.72;52.6084;93790.6;;;;
2019/04/24 03:42:21;;;;;;;2.05;1.3;;;;;;;10.42;52.95996;93801.03;;;;
2019/04/24 03:43:22;;;;;;;2.05;1.3;;;;;;;10.42;52.95996;93801.03;;;;
2019/04/24 03:44:23;;;;;;;2.05;1.3;;;;;;;10.42;52.95996;93801.03;;;;
2019/04/24 03:45:29;;;;;;;2.05;1.3;;;;;;;10.42;52.95996;93801.03;;;;
2019/04/24 03:46:34;;;;;;;2.05;1.3;;;;;;;10.42;52.95996;93801.03;;;;
2019/04/24 03:47:40;;;;;;;2.05;1.3;;;;;;;10.42;52.95996;93801.03;;;;
2019/04/24 03:48:47;;;;;;;2.05;1.3;;;;;;;10.42;52.95996;93801.03;;;;
2019/04/24 03:49:52;;;;;;;2.05;1.3;;;;;;;10.42;52.95996;93801.03;;;;
2019/04/24 03:50:53;;;;;;;2.05;1.3;;;;;;;10.42;52.95996;93801.03;;;;
2019/04/24 03:51:54;;;;;;;2.05;1.3;;;;;;;10.42;52.95996;93801.03;;;;
2019/04/24 03:52:55;;;;;;;3.7;1.35;;;;;;;10.24;53.25;93813.59;;;;
2019/04/24 03:54:07;;;;;;;3.7;1.35;;;;;;;10.24;53.25;93813.59;;;;
2019/04/24 03:56:04;;;;;;;3.7;1.35;;;;;;;10.24;53.25;93813.59;;;;
2019/04/24 03:57:09;;;;;;;3.7;1.35;;;;;;;10.24;53.25;93813.59;;;;
2019/04/24 03:58:38;;;;;;;3.7;1.35;;;;;;;10.24;53.25;93813.59;;;;
2019/04/24 03:59:59;;;;;;;3.7;1.35;;;;;;;10.24;53.25;93813.59;;;;
2019/04/24 04:01:09;;;;;;;3.7;1.35;;;;;;;10.24;53.25;93813.59;;;;
2019/04/24 04:02:28;;;;;;;3.7;1.35;;;;;;;10.24;53.25;93813.59;;;;
2019/04/24 04:03:29;;;;;;;3.6;1.6;;;;;;;9.98;53.72266;93819.62;;;;
2019/04/24 04:04:34;;;;;;;3.6;1.6;;;;;;;9.98;53.72266;93819.62;;;;
2019/04/24 04:05:35;;;;;;;3.6;1.6;;;;;;;9.98;53.72266;93819.62;;;;
2019/04/24 04:06:36;;;;;;;3.6;1.6;;;;;;;9.98;53.72266;93819.62;;;;
2019/04/24 04:07:37;;;;;;;3.6;1.6;;;;;;;9.98;53.72266;93819.62;;;;
2019/04/24 04:08:38;;;;;;;3.6;1.6;;;;;;;9.98;53.72266;93819.62;;;;
2019/04/24 04:09:39;;;;;;;3.6;1.6;;;;;;;9.98;53.72266;93819.62;;;;
2019/04/24 04:10:40;;;;;;;3.6;1.6;;;;;;;9.98;53.72266;93819.62;;;;
2019/04/24 04:11:41;;;;;;;3.6;1.6;;;;;;;9.98;53.72266;93819.62;;;;
2019/04/24 04:12:43;;;;;;;3.6;1.6;;;;;;;9.98;53.72266;93819.62;;;;
2019/04/24 04:13:44;;;;;;;1.7;1.2;;;;;;;9.85;54.11621;93829.03;;;;
2019/04/24 04:14:45;;;;;;;1.7;1.2;;;;;;;9.85;54.11621;93829.03;;;;
2019/04/24 04:15:46;;;;;;;1.7;1.2;;;;;;;9.85;54.11621;93829.03;;;;
2019/04/24 04:16:51;;;;;;;1.7;1.2;;;;;;;9.85;54.11621;93829.03;;;;
2019/04/24 04:17:55;;;;;;;1.7;1.2;;;;;;;9.85;54.11621;93829.03;;;;
2019/04/24 04:19:02;;;;;;;1.7;1.2;;;;;;;9.85;54.11621;93829.03;;;;
2019/04/24 04:20:04;;;;;;;1.7;1.2;;;;;;;9.85;54.11621;93829.03;;;;
2019/04/24 04:21:06;;;;;;;1.7;1.2;;;;;;;9.85;54.11621;93829.03;;;;
2019/04/24 04:22:07;;;;;;;1.7;1.2;;;;;;;9.85;54.11621;93829.03;;;;
2019/04/24 04:23:08;;;;;;;1.7;1.2;;;;;;;9.85;54.11621;93829.03;;;;
2019/04/24 04:24:15;;;;;;;1.7;1.2;;;;;;;9.85;54.11621;93829.03;;;;
2019/04/24 04:25:28;;;;;;;3.2;1.2;;;;;;;9.72;54.43164;93830.06;;;;
2019/04/24 04:26:29;;;;;;;3.2;1.2;;;;;;;9.72;54.43164;93830.06;;;;
2019/04/24 04:27:30;;;;;;;3.2;1.2;;;;;;;9.72;54.43164;93830.06;;;;
2019/04/24 04:33:47;;;;;;;3.2;1.2;;;;;;;9.72;54.43164;93830.06;;;;
2019/04/24 04:34:51;;;;;;;3.2;1.2;;;;;;;9.72;54.43164;93830.06;;;;
2019/04/24 04:35:52;;;;;;;2.9;1.4;;;;;;;9.78;54.67676;93831.18;;;;
2019/04/24 04:36:53;;;;;;;2.9;1.4;;;;;;;9.78;54.67676;93831.18;;;;
2019/04/24 04:37:54;;;;;;;2.9;1.4;;;;;;;9.78;54.67676;93831.18;;;;
2019/04/24 04:38:55;;;;;;;2.9;1.4;;;;;;;9.78;54.67676;93831.18;;;;
2019/04/24 04:40:00;;;;;;;2.9;1.4;;;;;;;9.78;54.67676;93831.18;;;;
2019/04/24 04:41:22;;;;;;;2.9;1.4;;;;;;;9.78;54.67676;93831.18;;;;
2019/04/24 04:42:23;;;;;;;2.9;1.4;;;;;;;9.78;54.67676;93831.18;;;;
2019/04/24 04:43:24;;;;;;;2.9;1.4;;;;;;;9.78;54.67676;93831.18;;;;
2019/04/24 04:44:25;;;;;;;2.9;1.4;;;;;;;9.78;54.67676;93831.18;;;;
2019/04/24 04:45:32;;;;;;;2.9;1.4;;;;;;;9.78;54.67676;93831.18;;;;
2019/04/24 04:46:41;;;;;;;2.8;1.2;;;;;;;10.06;54.99023;93825.41;;;;
2019/04/24 04:47:46;;;;;;;2.8;1.2;;;;;;;10.06;54.99023;93825.41;;;;
2019/04/24 04:48:53;;;;;;;2.8;1.2;;;;;;;10.06;54.99023;93825.41;;;;
2019/04/24 04:49:58;;;;;;;2.8;1.2;;;;;;;10.06;54.99023;93825.41;;;;
2019/04/24 04:50:59;;;;;;;2.8;1.2;;;;;;;10.06;54.99023;93825.41;;;;
2019/04/24 04:52:01;;;;;;;2.8;1.2;;;;;;;10.06;54.99023;93825.41;;;;
2019/04/24 04:53:02;;;;;;;2.8;1.2;;;;;;;10.06;54.99023;93825.41;;;;
2019/04/24 04:54:03;;;;;;;2.8;1.2;;;;;;;10.06;54.99023;93825.41;;;;
2019/04/24 04:55:08;;;;;;;2.8;1.2;;;;;;;10.06;54.99023;93825.41;;;;
2019/04/24 04:56:09;;;;;;;2.8;1.2;;;;;;;10.06;54.99023;93825.41;;;;
2019/04/24 04:57:10;;;;;;;2.8;1.2;;;;;;;10.06;54.99023;93825.41;;;;
2019/04/24 04:58:15;;;;;;;2.8;1.2;;;;;;;10.06;54.99023;93825.41;;;;
2019/04/24 04:59:16;;;;;;;2.8;1.2;;;;;;;10.06;54.99023;93825.41;;;;
2019/04/24 05:00:56;;;;;;;2.8;1.2;;;;;;;10.06;54.99023;93825.41;;;;
2019/04/24 05:02:04;;;;;;;2.8;1.2;;;;;;;10.06;54.99023;93825.41;;;;
2019/04/24 05:03:09;;;;;;;2.8;1.2;;;;;;;10.06;54.99023;93825.41;;;;
2019/04/24 05:04:14;;;;;;;2.8;1.2;;;;;;;10.06;54.99023;93825.41;;;;
2019/04/24 05:05:16;;;;;;;2.8;1.2;;;;;;;10.06;54.99023;93825.41;;;;
2019/04/24 05:06:40;;;;;;;0.9;0.9;;;;;;;11.67;54.12598;93863.84;;;;
2019/04/24 05:07:41;;;;;;;0.9;0.9;;;;;;;11.67;54.12598;93863.84;;;;
2019/04/24 05:08:42;;;;;;;0.9;0.9;;;;;;;11.67;54.12598;93863.84;;;;
2019/04/24 05:09:43;;;;;;;0.9;0.9;;;;;;;11.67;54.12598;93863.84;;;;
2019/04/24 05:10:44;;;;;;;0.9;0.9;;;;;;;11.67;54.12598;93863.84;;;;
2019/04/24 05:11:45;;;;;;;0.9;0.9;;;;;;;11.67;54.12598;93863.84;;;;
2019/04/24 05:12:46;;;;;;;0.9;0.9;;;;;;;11.67;54.12598;93863.84;;;;
2019/04/24 05:13:47;;;;;;;0.9;0.9;;;;;;;11.67;54.12598;93863.84;;;;
2019/04/24 05:14:48;;;;;;;0.9;0.9;;;;;;;11.67;54.12598;93863.84;;;;
2019/04/24 05:15:51;;;;;;;0.9;0.9;;;;;;;11.67;54.12598;93863.84;;;;
2019/04/24 05:16:52;;;;;;;0.9;0.9;;;;;;;11.67;54.12598;93863.84;;;;
2019/04/24 05:17:53;;;;;;;1.25;1;;;;;;;12.49;53.22168;93877.03;;;;
2019/04/24 05:18:54;;;;;;;1.25;1;;;;;;;12.49;53.22168;93877.03;;;;
2019/04/24 05:19:55;;;;;;;1.25;1;;;;;;;12.49;53.22168;93877.03;;;;
2019/04/24 05:20:56;;;;;;;1.25;1;;;;;;;12.49;53.22168;93877.03;;;;
2019/04/24 05:21:57;;;;;;;1.25;1;;;;;;;12.49;53.22168;93877.03;;;;
2019/04/24 05:22:58;;;;;;;1.25;1;;;;;;;12.49;53.22168;93877.03;;;;
2019/04/24 05:24:03;;;;;;;1.25;1;;;;;;;12.49;53.22168;93877.03;;;;
2019/04/24 05:25:19;;;;;;;1.25;1;;;;;;;12.49;53.22168;93877.03;;;;
2019/04/24 05:26:23;;;;;;;1.25;1;;;;;;;12.49;53.22168;93877.03;;;;
2019/04/24 05:27:27;;;;;;;1.25;1;;;;;;;12.49;53.22168;93877.03;;;;
2019/04/24 05:28:34;;;;;;;0.8;0.8;;;;;;;13.13;52.47656;93893.06;;;;
2019/04/24 05:29:40;;;;;;;0.8;0.8;;;;;;;13.13;52.47656;93893.06;;;;
2019/04/24 05:30:46;;;;;;;0.8;0.8;;;;;;;13.13;52.47656;93893.06;;;;
2019/04/24 05:31:53;;;;;;;0.8;0.8;;;;;;;13.13;52.47656;93893.06;;;;
2019/04/24 05:32:54;;;;;;;0.8;0.8;;;;;;;13.13;52.47656;93893.06;;;;
2019/04/24 05:33:56;;;;;;;0.8;0.8;;;;;;;13.13;52.47656;93893.06;;;;
2019/04/24 05:35:27;;;;;;;0.8;0.8;;;;;;;13.13;52.47656;93893.06;;;;
2019/04/24 05:36:33;;;;;;;0.8;0.8;;;;;;;13.13;52.47656;93893.06;;;;
2019/04/24 05:38:41;;;;;;;0.8;0.8;;;;;;;13.13;52.47656;93893.06;;;;
2019/04/24 05:39:42;;;;;;;1.15;0.9;;;;;;;13.8;51.59082;93897.09;;;;
2019/04/24 05:40:48;;;;;;;1.15;0.9;;;;;;;13.8;51.59082;93897.09;;;;
2019/04/24 05:41:49;;;;;;;1.15;0.9;;;;;;;13.8;51.59082;93897.09;;;;
2019/04/24 05:42:50;;;;;;;1.15;0.9;;;;;;;13.8;51.59082;93897.09;;;;
2019/04/24 05:43:51;;;;;;;1.15;0.9;;;;;;;13.8;51.59082;93897.09;;;;
2019/04/24 05:44:52;;;;;;;1.15;0.9;;;;;;;13.8;51.59082;93897.09;;;;
2019/04/24 05:45:53;;;;;;;1.15;0.9;;;;;;;13.8;51.59082;93897.09;;;;
2019/04/24 05:46:58;;;;;;;1.15;0.9;;;;;;;13.8;51.59082;93897.09;;;;
2019/04/24 05:48:00;;;;;;;1.15;0.9;;;;;;;13.8;51.59082;93897.09;;;;
2019/04/24 05:49:06;;;;;;;1.15;0.9;;;;;;;13.8;51.59082;93897.09;;;;
2019/04/24 05:50:23;;;;;;;0.95;0.95;;;;;;;14.27;50.8418;93901.93;;;;
2019/04/24 05:51:29;;;;;;;0.95;0.95;;;;;;;14.27;50.8418;93901.93;;;;
2019/04/24 05:52:30;;;;;;;0.95;0.95;;;;;;;14.27;50.8418;93901.93;;;;
2019/04/24 05:53:45;;;;;;;0.95;0.95;;;;;;;14.27;50.8418;93901.93;;;;
2019/04/24 05:54:51;;;;;;;0.95;0.95;;;;;;;14.27;50.8418;93901.93;;;;
2019/04/24 05:55:53;;;;;;;0.95;0.95;;;;;;;14.27;50.8418;93901.93;;;;
2019/04/24 05:57:57;;;;;;;0.95;0.95;;;;;;;14.27;50.8418;93901.93;;;;
2019/04/24 05:58:58;;;;;;;0.95;0.95;;;;;;;14.27;50.8418;93901.93;;;;
2019/04/24 06:00:07;;;;;;;1.95;0.9;;;;;;;14.86;50.16016;93912.61;;;;
2019/04/24 06:01:16;;;;;;;1.95;0.9;;;;;;;14.86;50.16016;93912.61;;;;
2019/04/24 06:02:20;;;;;;;1.95;0.9;;;;;;;14.86;50.16016;93912.61;;;;
2019/04/24 06:03:27;;;;;;;1.95;0.9;;;;;;;14.86;50.16016;93912.61;;;;
2019/04/24 06:04:28;;;;;;;1.95;0.9;;;;;;;14.86;50.16016;93912.61;;;;
2019/04/24 06:05:33;;;;;;;1.95;0.9;;;;;;;14.86;50.16016;93912.61;;;;
2019/04/24 06:07:49;;;;;;;1.95;0.9;;;;;;;14.86;50.16016;93912.61;;;;
2019/04/24 06:08:54;;;;;;;1.95;0.9;;;;;;;14.86;50.16016;93912.61;;;;
2019/04/24 06:09:59;;;;;;;1.95;0.9;;;;;;;14.86;50.16016;93912.61;;;;
2019/04/24 06:11:01;;;;;;;1.6;0.9;;;;;;;15.4;49.2832;93927.37;;;;
2019/04/24 06:12:09;;;;;;;1.6;0.9;;;;;;;15.4;49.2832;93927.37;;;;
2019/04/24 06:13:16;;;;;;;1.6;0.9;;;;;;;15.4;49.2832;93927.37;;;;
2019/04/24 06:19:29;;;;;;;1.6;0.9;;;;;;;15.4;49.2832;93927.37;;;;
2019/04/24 06:20:32;;;;;;;1.6;0.9;;;;;;;15.4;49.2832;93927.37;;;;
2019/04/24 06:21:33;;;;;;;2.15;1;;;;;;;16.09;48.07227;93915.47;;;;
2019/04/24 06:22:59;;;;;;;2.15;1;;;;;;;16.09;48.07227;93915.47;;;;
2019/04/24 06:24:00;;;;;;;2.15;1;;;;;;;16.09;48.07227;93915.47;;;;
2019/04/24 06:25:01;;;;;;;2.15;1;;;;;;;16.09;48.07227;93915.47;;;;
2019/04/24 06:26:03;;;;;;;2.15;1;;;;;;;16.09;48.07227;93915.47;;;;
2019/04/24 06:27:04;;;;;;;2.15;1;;;;;;;16.09;48.07227;93915.47;;;;
2019/04/24 06:28:05;;;;;;;2.15;1;;;;;;;16.09;48.07227;93915.47;;;;
2019/04/24 06:29:06;;;;;;;2.15;1;;;;;;;16.09;48.07227;93915.47;;;;
2019/04/24 06:30:07;;;;;;;2.15;1;;;;;;;16.09;48.07227;93915.47;;;;
2019/04/24 06:31:32;;;;;;;2.15;1;;;;;;;16.09;48.07227;93915.47;;;;
2019/04/24 06:32:33;;;;;;;1.5;0.9;;;;;;;17.11;46.55273;93918.81;;;;
2019/04/24 06:33:34;;;;;;;1.5;0.9;;;;;;;17.11;46.55273;93918.81;;;;